Time;durP1;ratioP1;P1;durP2;ratioP2;P2;SDS_P1;SDS_P2;PMS_P1;PMS_P2;Temp;Humidity;BMP_temperature;BMP_pressure;BME280_temperature;BME280_humidity;BME280_pressure;Samples;Min_cycle;Max_cycle;Signal;HPM_P1;HPM_P2
2023/05/01 00:00:17;;;;;;;7.47;2.63;;;;;;;;;;5123662;27;21820;-63
2023/05/01 00:03:57;;;;;;;6.97;2.38;;;;;;;;;;5122354;27;20038;-63
2023/05/01 00:06:58;;;;;;;5.93;2.50;;;;;;;;;;5116046;27;20054;-65
2023/05/01 00:09:26;;;;;;;9.85;2.75;;;;;;;;;;5123555;27;20116;-63
2023/05/01 00:11:52;;;;;;;7.80;2.47;;;;;;;;;;5121494;27;20046;-68
2023/05/01 00:14:18;;;;;;;9.40;2.60;;;;;;;;;;5123017;27;20062;-64
2023/05/01 00:17:24;;;;;;;10.20;2.58;;;;;;;;;;5122281;27;20043;-63
2023/05/01 00:21:07;;;;;;;6.88;2.72;;;;;;;;;;5138700;27;20117;-62
2023/05/01 00:24:48;;;;;;;10.23;2.88;;;;;;;;;;5132961;27;21833;-61
2023/05/01 00:28:28;;;;;;;9.32;2.75;;;;;;;;;;5122489;27;20042;-64
2023/05/01 00:32:09;;;;;;;9.98;2.50;;;;;;;;;;5120769;27;20054;-62
2023/05/01 00:35:50;;;;;;;6.97;2.88;;;;;;;;;;5118668;27;20054;-63
2023/05/01 00:39:29;;;;;;;6.07;2.60;;;;;;;;;;5121040;27;20046;-64
2023/05/01 00:43:12;;;;;;;8.60;2.75;;;;;;;;;;5121696;27;20162;-65
2023/05/01 00:46:53;;;;;;;8.82;2.40;;;;;;;;;;5121168;27;20425;-61
2023/05/01 00:50:33;;;;;;;13.15;2.78;;;;;;;;;;5124483;27;20061;-63
2023/05/01 00:54:13;;;;;;;10.07;3.00;;;;;;;;;;5126574;27;20420;-64
2023/05/01 00:57:54;;;;;;;7.43;3.03;;;;;;;;;;5121342;27;20139;-60
2023/05/01 01:01:34;;;;;;;6.82;2.80;;;;;;;;;;5122694;27;20231;-62
2023/05/01 01:05:15;;;;;;;7.18;2.88;;;;;;;;;;5119360;27;20165;-62
2023/05/01 01:08:57;;;;;;;10.73;3.35;;;;;;;;;;5124193;27;20042;-61
2023/05/01 01:12:28;;;;;;;13.70;3.10;;;;;;;;;;5124064;27;20099;-61
2023/05/01 01:15:26;;;;;;;7.90;3.15;;;;;;;;;;5128989;27;20051;-61
2023/05/01 01:18:04;;;;;;;13.23;3.05;;;;;;;;;;5132936;27;20185;-60
2023/05/01 01:20:36;;;;;;;7.47;3.10;;;;;;;;;;5129952;27;20322;-63
2023/05/01 01:23:20;;;;;;;12.40;3.47;;;;;;;;;;5127269;27;20145;-61
2023/05/01 01:26:13;;;;;;;10.52;3.42;;;;;;;;;;5125246;27;20051;-61
2023/05/01 01:29:05;;;;;;;8.52;3.40;;;;;;;;;;5124887;27;20061;-62
2023/05/01 01:31:40;;;;;;;9.10;3.22;;;;;;;;;;5111236;27;20604;-60
2023/05/01 01:34:13;;;;;;;10.88;3.65;;;;;;;;;;5126032;27;20127;-60
2023/05/01 01:36:48;;;;;;;8.90;3.67;;;;;;;;;;5126294;27;20039;-61
2023/05/01 01:39:14;;;;;;;10.68;2.92;;;;;;;;;;5126274;27;20059;-63
2023/05/01 01:41:44;;;;;;;6.43;2.70;;;;;;;;;;5127054;27;20464;-62
2023/05/01 01:44:20;;;;;;;7.57;2.83;;;;;;;;;;5125673;27;20051;-60
2023/05/01 01:46:48;;;;;;;8.23;2.83;;;;;;;;;;5124537;27;20062;-62
2023/05/01 01:49:21;;;;;;;7.90;2.80;;;;;;;;;;5123100;27;20135;-62
2023/05/01 01:51:49;;;;;;;8.13;2.60;;;;;;;;;;5122702;27;20062;-62
2023/05/01 01:54:20;;;;;;;8.77;2.90;;;;;;;;;;5124092;27;20100;-61
2023/05/01 01:56:49;;;;;;;6.78;2.80;;;;;;;;;;5125282;27;20771;-61
2023/05/01 01:59:15;;;;;;;5.85;2.75;;;;;;;;;;5124334;27;20057;-63
2023/05/01 02:01:43;;;;;;;7.13;2.60;;;;;;;;;;5126978;27;20042;-62
2023/05/01 02:04:12;;;;;;;10.27;3.10;;;;;;;;;;5123224;27;20047;-61
2023/05/01 02:06:40;;;;;;;8.40;2.70;;;;;;;;;;5125555;27;20603;-61
2023/05/01 02:09:08;;;;;;;11.85;2.70;;;;;;;;;;5122677;27;20649;-60
2023/05/01 02:11:36;;;;;;;6.00;2.38;;;;;;;;;;5130058;27;20107;-62
2023/05/01 02:14:04;;;;;;;8.02;2.70;;;;;;;;;;5125804;27;20084;-60
2023/05/01 02:16:32;;;;;;;6.28;2.70;;;;;;;;;;5124700;27;20046;-64
2023/05/01 02:19:00;;;;;;;9.55;2.90;;;;;;;;;;5121908;27;20091;-60
2023/05/01 02:21:27;;;;;;;10.25;2.60;;;;;;;;;;5128188;27;20070;-60
2023/05/01 02:23:53;;;;;;;9.10;3.08;;;;;;;;;;5124269;27;20606;-61
2023/05/01 02:26:24;;;;;;;11.55;3.00;;;;;;;;;;5123278;27;20054;-61
2023/05/01 02:28:49;;;;;;;7.07;2.40;;;;;;;;;;5122568;27;20593;-61
2023/05/01 02:31:15;;;;;;;9.82;2.70;;;;;;;;;;5122462;27;20445;-60
2023/05/01 02:33:41;;;;;;;6.80;2.80;;;;;;;;;;5109319;27;20066;-61
2023/05/01 02:36:07;;;;;;;6.70;2.58;;;;;;;;;;5121764;27;20074;-61
2023/05/01 02:38:34;;;;;;;12.98;3.25;;;;;;;;;;5126224;27;20493;-60
2023/05/01 02:41:02;;;;;;;10.38;3.08;;;;;;;;;;5126162;27;20051;-63
2023/05/01 02:43:31;;;;;;;13.35;3.35;;;;;;;;;;5126145;27;20122;-62
2023/05/01 02:45:59;;;;;;;8.73;3.10;;;;;;;;;;5128175;27;20054;-63
2023/05/01 02:48:27;;;;;;;6.93;2.80;;;;;;;;;;5121613;27;20053;-61
2023/05/01 02:50:55;;;;;;;9.88;3.10;;;;;;;;;;5124660;27;20674;-61
2023/05/01 02:53:21;;;;;;;12.38;3.25;;;;;;;;;;5124614;27;20429;-62
2023/05/01 02:55:48;;;;;;;10.70;2.92;;;;;;;;;;5125725;27;20050;-61
2023/05/01 02:58:18;;;;;;;11.45;2.97;;;;;;;;;;5126862;27;20086;-62
2023/05/01 03:00:44;;;;;;;5.82;2.70;;;;;;;;;;5125430;27;20051;-61
2023/05/01 03:03:10;;;;;;;7.88;2.80;;;;;;;;;;5123451;27;20137;-62
2023/05/01 03:05:39;;;;;;;7.43;2.63;;;;;;;;;;5125219;27;20050;-60
2023/05/01 03:08:05;;;;;;;11.68;2.55;;;;;;;;;;5123014;27;20053;-60
2023/05/01 03:10:32;;;;;;;9.27;2.90;;;;;;;;;;5129797;27;20194;-62
2023/05/01 03:12:58;;;;;;;6.22;2.70;;;;;;;;;;5127201;27;20054;-59
2023/05/01 03:15:24;;;;;;;7.90;2.72;;;;;;;;;;5112093;27;20262;-60
2023/05/01 03:17:50;;;;;;;9.32;2.75;;;;;;;;;;5127308;27;20051;-62
2023/05/01 03:20:16;;;;;;;7.10;2.97;;;;;;;;;;5131125;27;20259;-61
2023/05/01 03:22:42;;;;;;;11.95;3.78;;;;;;;;;;5127461;27;20665;-62
2023/05/01 03:25:09;;;;;;;8.20;3.90;;;;;;;;;;5123484;27;20054;-61
2023/05/01 03:27:34;;;;;;;10.55;3.85;;;;;;;;;;5124152;27;20479;-60
2023/05/01 03:30:00;;;;;;;9.85;4.03;;;;;;;;;;5124773;27;20046;-60
2023/05/01 03:32:28;;;;;;;8.20;4.32;;;;;;;;;;5123975;27;20062;-61
2023/05/01 03:34:54;;;;;;;13.98;5.28;;;;;;;;;;5122354;27;20053;-61
2023/05/01 03:37:20;;;;;;;13.40;5.68;;;;;;;;;;5121859;27;20483;-61
2023/05/01 03:39:46;;;;;;;13.85;5.95;;;;;;;;;;5122923;27;20131;-62
2023/05/01 03:42:11;;;;;;;11.82;6.28;;;;;;;;;;5121275;27;20099;-63
2023/05/01 03:44:38;;;;;;;13.93;6.47;;;;;;;;;;5124335;27;20047;-62
2023/05/01 03:47:03;;;;;;;14.50;7.25;;;;;;;;;;5126837;27;20058;-62
2023/05/01 03:49:29;;;;;;;13.68;6.82;;;;;;;;;;5109379;27;20531;-59
2023/05/01 03:51:55;;;;;;;12.75;7.20;;;;;;;;;;5122612;27;20449;-61
2023/05/01 03:54:22;;;;;;;13.77;6.78;;;;;;;;;;5122608;27;20058;-61
2023/05/01 03:56:47;;;;;;;17.10;7.18;;;;;;;;;;5123395;27;20409;-61
2023/05/01 03:59:13;;;;;;;13.65;7.15;;;;;;;;;;5122925;27;20490;-63
2023/05/01 04:01:39;;;;;;;13.75;6.55;;;;;;;;;;5125633;27;20043;-62
2023/05/01 04:04:06;;;;;;;14.88;6.72;;;;;;;;;;5123729;27;20858;-63
2023/05/01 04:06:32;;;;;;;11.38;6.68;;;;;;;;;;5124207;27;20050;-62
2023/05/01 04:08:58;;;;;;;15.32;6.60;;;;;;;;;;5123277;27;20042;-62
2023/05/01 04:11:24;;;;;;;12.20;7.00;;;;;;;;;;5126085;27;20596;-60
2023/05/01 04:13:50;;;;;;;15.57;6.65;;;;;;;;;;5126862;27;20054;-60
2023/05/01 04:16:16;;;;;;;14.23;6.40;;;;;;;;;;5125653;27;21792;-60
2023/05/01 04:18:43;;;;;;;10.23;5.80;;;;;;;;;;5126880;27;20054;-62
2023/05/01 04:21:08;;;;;;;19.67;6.55;;;;;;;;;;5134331;27;20061;-63
2023/05/01 04:23:34;;;;;;;11.55;6.13;;;;;;;;;;5126263;27;20061;-63
2023/05/01 04:26:00;;;;;;;12.43;6.50;;;;;;;;;;5121437;27;20521;-62
2023/05/01 04:28:29;;;;;;;11.23;5.63;;;;;;;;;;5122440;27;20393;-61
2023/05/01 04:30:57;;;;;;;13.38;6.00;;;;;;;;;;5123643;27;20164;-61
2023/05/01 04:33:27;;;;;;;9.45;6.00;;;;;;;;;;5123471;27;20876;-61
2023/05/01 04:35:53;;;;;;;10.90;5.72;;;;;;;;;;5122025;27;20074;-61
2023/05/01 04:38:19;;;;;;;11.60;5.60;;;;;;;;;;5118505;27;20047;-60
2023/05/01 04:40:45;;;;;;;10.50;5.28;;;;;;;;;;5122299;27;20742;-66
2023/05/01 04:43:12;;;;;;;11.52;5.63;;;;;;;;;;5125952;27;20524;-61
2023/05/01 04:45:37;;;;;;;11.60;5.28;;;;;;;;;;5123141;27;20058;-62
2023/05/01 04:48:04;;;;;;;9.82;5.65;;;;;;;;;;5124167;27;20055;-61
2023/05/01 04:50:30;;;;;;;16.75;5.45;;;;;;;;;;5124313;27;20421;-67
2023/05/01 04:52:56;;;;;;;12.07;5.65;;;;;;;;;;5121257;27;20050;-61
2023/05/01 04:55:22;;;;;;;9.10;5.18;;;;;;;;;;5125552;27;20485;-60
2023/05/01 04:57:49;;;;;;;11.00;5.43;;;;;;;;;;5121631;27;20051;-66
2023/05/01 05:00:17;;;;;;;11.13;5.18;;;;;;;;;;5121514;27;20103;-61
2023/05/01 05:02:45;;;;;;;12.00;4.85;;;;;;;;;;5122271;27;20054;-62
2023/05/01 05:05:10;;;;;;;11.13;5.07;;;;;;;;;;5121644;27;20431;-60
2023/05/01 05:07:36;;;;;;;9.07;5.10;;;;;;;;;;5125060;27;20111;-61
2023/05/01 05:10:04;;;;;;;10.38;5.20;;;;;;;;;;5129139;27;20066;-61
2023/05/01 05:12:30;;;;;;;9.02;5.40;;;;;;;;;;5121176;27;20055;-63
2023/05/01 05:14:56;;;;;;;11.98;5.47;;;;;;;;;;5122808;27;20054;-61
2023/05/01 05:17:23;;;;;;;9.93;5.70;;;;;;;;;;5121043;27;20059;-61
2023/05/01 05:19:49;;;;;;;12.90;5.32;;;;;;;;;;5124908;27;20487;-61
2023/05/01 05:22:15;;;;;;;11.70;5.28;;;;;;;;;;5123297;27;20050;-62
2023/05/01 05:24:41;;;;;;;9.27;5.47;;;;;;;;;;5123641;27;20241;-62
2023/05/01 05:27:07;;;;;;;13.60;5.60;;;;;;;;;;5101583;27;20138;-62
2023/05/01 05:29:33;;;;;;;12.43;5.65;;;;;;;;;;5123170;27;20051;-63
2023/05/01 05:32:00;;;;;;;11.40;5.35;;;;;;;;;;5123180;27;20062;-62
2023/05/01 05:34:25;;;;;;;12.75;5.10;;;;;;;;;;5123549;27;20078;-62
2023/05/01 05:36:52;;;;;;;10.90;5.22;;;;;;;;;;5124347;27;20111;-61
2023/05/01 05:39:21;;;;;;;10.35;5.28;;;;;;;;;;5126462;27;20203;-63
2023/05/01 05:41:48;;;;;;;11.93;5.07;;;;;;;;;;5127458;27;20414;-61
2023/05/01 05:44:14;;;;;;;9.60;4.97;;;;;;;;;;5125849;27;20126;-61
2023/05/01 05:46:40;;;;;;;8.50;4.80;;;;;;;;;;5109260;27;20042;-62
2023/05/01 05:49:05;;;;;;;11.25;5.15;;;;;;;;;;5127075;27;20058;-62
2023/05/01 05:51:31;;;;;;;10.60;4.90;;;;;;;;;;5126240;27;20055;-60
2023/05/01 05:53:57;;;;;;;12.15;5.70;;;;;;;;;;5125366;27;20765;-63
2023/05/01 05:56:23;;;;;;;10.57;4.80;;;;;;;;;;5124995;27;20051;-62
2023/05/01 05:58:49;;;;;;;9.30;5.68;;;;;;;;;;5127943;27;20070;-62
2023/05/01 06:01:16;;;;;;;12.60;6.75;;;;;;;;;;5124301;27;20051;-63
2023/05/01 06:03:42;;;;;;;11.23;5.55;;;;;;;;;;5125882;27;20054;-61
2023/05/01 06:06:08;;;;;;;12.57;7.53;;;;;;;;;;5126563;27;20574;-64
2023/05/01 06:08:36;;;;;;;11.27;5.55;;;;;;;;;;5125720;27;20110;-61
2023/05/01 06:11:02;;;;;;;11.52;5.63;;;;;;;;;;5126436;27;20129;-60
2023/05/01 06:13:28;;;;;;;11.02;5.60;;;;;;;;;;5125398;27;20498;-61
2023/05/01 06:15:54;;;;;;;11.85;6.03;;;;;;;;;;5125760;27;20612;-61
2023/05/01 06:18:20;;;;;;;10.32;4.97;;;;;;;;;;5126139;27;20115;-62
2023/05/01 06:20:46;;;;;;;10.13;5.68;;;;;;;;;;5133917;27;20055;-62
2023/05/01 06:23:12;;;;;;;11.90;5.13;;;;;;;;;;5126366;27;20042;-61
2023/05/01 06:25:38;;;;;;;10.13;5.45;;;;;;;;;;5125501;27;20057;-66
2023/05/01 06:28:04;;;;;;;11.10;4.90;;;;;;;;;;5123566;27;20054;-65
2023/05/01 06:30:30;;;;;;;11.00;5.55;;;;;;;;;;5127028;27;20054;-62
2023/05/01 06:32:56;;;;;;;11.00;5.10;;;;;;;;;;5126757;27;20252;-62
2023/05/01 06:35:22;;;;;;;14.15;4.93;;;;;;;;;;5122907;27;20055;-61
2023/05/01 06:37:48;;;;;;;9.20;4.57;;;;;;;;;;5123172;27;20700;-61
2023/05/01 06:40:14;;;;;;;12.43;4.97;;;;;;;;;;5124888;27;20046;-62
2023/05/01 06:42:40;;;;;;;8.63;5.07;;;;;;;;;;5126652;27;20046;-63
2023/05/01 06:45:07;;;;;;;12.55;4.53;;;;;;;;;;5126310;27;20047;-63
2023/05/01 06:47:33;;;;;;;8.65;4.72;;;;;;;;;;5122118;27;20086;-63
2023/05/01 06:49:59;;;;;;;17.65;4.63;;;;;;;;;;5125738;27;20178;-64
2023/05/01 06:52:25;;;;;;;13.57;5.20;;;;;;;;;;5125207;27;20054;-63
2023/05/01 06:54:51;;;;;;;10.43;4.65;;;;;;;;;;5122754;27;20046;-64
2023/05/01 06:57:17;;;;;;;8.75;4.43;;;;;;;;;;5122655;27;20057;-63
2023/05/01 06:59:43;;;;;;;7.55;4.50;;;;;;;;;;5122699;27;20063;-61
2023/05/01 07:02:09;;;;;;;10.80;4.97;;;;;;;;;;5122299;27;20047;-63
2023/05/01 07:04:35;;;;;;;11.43;4.63;;;;;;;;;;5121153;27;20066;-62
2023/05/01 07:07:02;;;;;;;9.00;3.95;;;;;;;;;;5124982;27;20058;-62
2023/05/01 07:09:28;;;;;;;11.88;4.30;;;;;;;;;;5128577;27;20355;-62
2023/05/01 07:11:55;;;;;;;8.27;4.15;;;;;;;;;;5105530;27;20059;-62
2023/05/01 07:14:22;;;;;;;8.98;4.00;;;;;;;;;;5110767;27;20165;-63
2023/05/01 07:16:48;;;;;;;9.30;4.20;;;;;;;;;;5125114;27;20947;-62
2023/05/01 07:19:14;;;;;;;11.10;4.00;;;;;;;;;;5129761;27;20046;-63
2023/05/01 07:21:40;;;;;;;9.90;4.22;;;;;;;;;;5126694;27;20482;-64
2023/05/01 07:24:06;;;;;;;8.25;3.80;;;;;;;;;;5125472;27;20065;-64
2023/05/01 07:26:34;;;;;;;12.43;3.28;;;;;;;;;;5124335;27;21092;-64
2023/05/01 07:29:01;;;;;;;6.00;3.33;;;;;;;;;;5121267;27;20054;-64
2023/05/01 07:31:27;;;;;;;9.55;3.40;;;;;;;;;;5120909;27;20175;-63
2023/05/01 07:33:53;;;;;;;8.65;4.15;;;;;;;;;;5122241;27;20107;-62
2023/05/01 07:36:20;;;;;;;10.57;3.30;;;;;;;;;;5117655;27;20047;-66
2023/05/01 07:38:47;;;;;;;8.88;3.15;;;;;;;;;;5119455;27;20524;-62
2023/05/01 07:41:15;;;;;;;9.18;3.15;;;;;;;;;;5124985;27;20043;-62
2023/05/01 07:43:43;;;;;;;9.77;3.55;;;;;;;;;;5124810;27;20046;-63
2023/05/01 07:46:09;;;;;;;6.15;2.80;;;;;;;;;;5124514;27;20391;-62
2023/05/01 07:48:35;;;;;;;9.75;3.30;;;;;;;;;;5129115;27;20103;-63
2023/05/01 07:51:02;;;;;;;7.82;3.40;;;;;;;;;;5125343;27;20055;-62
2023/05/01 07:53:28;;;;;;;4.65;2.35;;;;;;;;;;5121937;27;20054;-64
2023/05/01 07:56:04;;;;;;;4.45;2.50;;;;;;;;;;5125527;27;20078;-66
2023/05/01 07:58:30;;;;;;;5.57;2.60;;;;;;;;;;5106705;27;20054;-65
2023/05/01 08:00:56;;;;;;;6.72;2.97;;;;;;;;;;5124802;27;20589;-66
2023/05/01 08:03:22;;;;;;;6.53;2.58;;;;;;;;;;5119884;27;20081;-63
2023/05/01 08:05:48;;;;;;;5.50;2.58;;;;;;;;;;5118996;27;20434;-66
2023/05/01 08:08:19;;;;;;;8.32;2.83;;;;;;;;;;5125616;27;20104;-64
2023/05/01 08:11:25;;;;;;;6.15;2.55;;;;;;;;;;5123230;27;20047;-65
2023/05/01 08:15:06;;;;;;;5.18;2.38;;;;;;;;;;5119712;27;20201;-65
2023/05/01 08:18:19;;;;;;;4.57;2.42;;;;;;;;;;5119248;27;20141;-64
2023/05/01 08:20:47;;;;;;;7.60;2.97;;;;;;;;;;5131472;27;20058;-65
2023/05/01 08:23:16;;;;;;;5.75;2.30;;;;;;;;;;5123542;27;20409;-63
2023/05/01 08:25:49;;;;;;;4.30;2.45;;;;;;;;;;5120776;27;20121;-67
2023/05/01 08:28:16;;;;;;;4.53;2.03;;;;;;;;;;5114283;27;20975;-66
2023/05/01 08:31:23;;;;;;;9.93;3.03;;;;;;;;;;5119432;27;20054;-67
2023/05/01 08:34:22;;;;;;;5.30;2.20;;;;;;;;;;5114751;27;20137;-66
2023/05/01 08:36:50;;;;;;;4.40;1.90;;;;;;;;;;5121778;27;20051;-65
2023/05/01 08:39:17;;;;;;;6.63;2.30;;;;;;;;;;5119630;27;20058;-64
2023/05/01 08:41:45;;;;;;;7.22;2.30;;;;;;;;;;5120364;27;20104;-67
2023/05/01 08:44:15;;;;;;;5.00;2.20;;;;;;;;;;5119660;27;20474;-67
2023/05/01 08:47:08;;;;;;;4.93;2.03;;;;;;;;;;5101083;27;20391;-66
2023/05/01 08:49:36;;;;;;;5.88;2.55;;;;;;;;;;5116510;27;20043;-69
2023/05/01 08:52:05;;;;;;;6.45;2.50;;;;;;;;;;5120427;27;20062;-67
2023/05/01 08:54:32;;;;;;;4.00;2.10;;;;;;;;;;5108295;27;20047;-65
2023/05/01 08:57:03;;;;;;;4.55;2.40;;;;;;;;;;5116579;27;20059;-68
2023/05/01 08:59:36;;;;;;;7.50;2.30;;;;;;;;;;5119172;27;20553;-66
2023/05/01 09:02:06;;;;;;;3.92;1.88;;;;;;;;;;5121156;27;20054;-66
2023/05/01 09:04:34;;;;;;;5.15;2.22;;;;;;;;;;5118020;27;21413;-67
2023/05/01 09:07:01;;;;;;;6.25;2.38;;;;;;;;;;5117095;27;20588;-68
2023/05/01 09:09:28;;;;;;;3.50;1.40;;;;;;;;;;5110990;27;20144;-67
2023/05/01 09:11:59;;;;;;;3.90;1.30;;;;;;;;;;5121373;27;20042;-65
2023/05/01 09:14:26;;;;;;;1.90;1.25;;;;;;;;;;5121998;27;20114;-70
2023/05/01 09:16:52;;;;;;;4.93;2.40;;;;;;;;;;5122242;27;20131;-67
2023/05/01 09:19:18;;;;;;;4.03;1.63;;;;;;;;;;5132956;27;20578;-68
2023/05/01 09:21:45;;;;;;;5.57;1.27;;;;;;;;;;5119561;27;20569;-65
2023/05/01 09:24:15;;;;;;;5.35;1.67;;;;;;;;;;5106642;27;20129;-69
2023/05/01 09:27:21;;;;;;;3.67;1.85;;;;;;;;;;5104509;27;20738;-70
2023/05/01 09:31:08;;;;;;;6.65;2.15;;;;;;;;;;5122285;27;20058;-67
2023/05/01 09:34:28;;;;;;;;;;;;;;;;;;5124364;27;20868;-67
2023/05/01 09:38:09;;;;;;;12.05;3.38;;;;;;;;;;5122120;27;19927;-65
2023/05/01 09:41:49;;;;;;;13.98;4.00;;;;;;;;;;5120934;27;20053;-66
2023/05/01 09:45:32;;;;;;;16.35;3.30;;;;;;;;;;5105386;27;20169;-66
2023/05/01 09:48:56;;;;;;;11.07;3.20;;;;;;;;;;5116848;27;20605;-65
2023/05/01 09:52:36;;;;;;;6.50;2.83;;;;;;;;;;5124409;27;20050;-66
2023/05/01 09:56:20;;;;;;;6.57;2.92;;;;;;;;;;5123243;27;20236;-68
2023/05/01 09:59:59;;;;;;;5.43;2.28;;;;;;;;;;5123853;27;20081;-66
2023/05/01 10:03:39;;;;;;;5.25;2.13;;;;;;;;;;5124519;27;20052;-66
2023/05/01 10:07:20;;;;;;;7.93;2.30;;;;;;;;;;5120588;27;20050;-68
2023/05/01 10:11:01;;;;;;;6.00;2.65;;;;;;;;;;5126894;27;20174;-65
2023/05/01 10:14:44;;;;;;;6.07;2.67;;;;;;;;;;5120256;27;20103;-67
2023/05/01 10:18:24;;;;;;;6.18;3.00;;;;;;;;;;5126380;27;20531;-68
2023/05/01 10:22:06;;;;;;;8.48;2.45;;;;;;;;;;5128985;27;20057;-70
2023/05/01 10:25:51;;;;;;;5.82;2.60;;;;;;;;;;5126036;27;20043;-67
2023/05/01 10:29:29;;;;;;;9.70;2.60;;;;;;;;;;5123786;27;20050;-66
2023/05/01 10:33:09;;;;;;;6.78;2.58;;;;;;;;;;5119096;27;20046;-65
2023/05/01 10:36:31;;;;;;;9.73;2.50;;;;;;;;;;5121086;27;20517;-68
2023/05/01 10:40:13;;;;;;;9.68;2.33;;;;;;;;;;5123975;27;20039;-68
2023/05/01 10:43:39;;;;;;;7.28;2.13;;;;;;;;;;5121409;27;20832;-69
2023/05/01 10:46:08;;;;;;;6.25;2.63;;;;;;;;;;5120446;27;20421;-67
2023/05/01 10:48:37;;;;;;;6.85;2.28;;;;;;;;;;5106947;27;20123;-70
2023/05/01 10:51:16;;;;;;;5.85;2.15;;;;;;;;;;5105311;27;20058;-68
2023/05/01 10:53:45;;;;;;;5.65;2.45;;;;;;;;;;5110912;27;20131;-68
2023/05/01 10:56:37;;;;;;;4.80;2.00;;;;;;;;;;5118694;27;20051;-68
2023/05/01 10:59:03;;;;;;;6.35;2.03;;;;;;;;;;5102265;27;20412;-67
2023/05/01 11:01:34;;;;;;;5.57;2.55;;;;;;;;;;5112122;27;20062;-66
2023/05/01 11:04:26;;;;;;;7.30;2.58;;;;;;;;;;5107164;27;20465;-67
2023/05/01 11:07:04;;;;;;;5.45;2.22;;;;;;;;;;5108311;27;20055;-70
2023/05/01 11:09:56;;;;;;;6.85;2.17;;;;;;;;;;5119608;27;20078;-68
2023/05/01 11:12:49;;;;;;;7.75;2.50;;;;;;;;;;5123031;27;20304;-67
2023/05/01 11:15:30;;;;;;;6.72;2.10;;;;;;;;;;5112980;27;20054;-66
2023/05/01 11:17:57;;;;;;;4.43;1.80;;;;;;;;;;5112284;27;20118;-66
2023/05/01 11:20:25;;;;;;;5.57;1.95;;;;;;;;;;5149740;27;20430;-67
2023/05/01 11:22:53;;;;;;;4.40;2.03;;;;;;;;;;5140861;27;20043;-65
2023/05/01 11:25:24;;;;;;;3.28;1.88;;;;;;;;;;5131885;27;20046;-67
2023/05/01 11:27:53;;;;;;;7.10;2.63;;;;;;;;;;5128534;27;20046;-67
2023/05/01 11:30:20;;;;;;;8.73;2.90;;;;;;;;;;5136329;27;20047;-64
2023/05/01 11:32:48;;;;;;;6.00;2.40;;;;;;;;;;5137564;27;20124;-68
2023/05/01 11:35:22;;;;;;;10.20;2.88;;;;;;;;;;5143482;27;20062;-68
2023/05/01 11:37:55;;;;;;;10.77;3.28;;;;;;;;;;5147454;27;20425;-67
2023/05/01 11:40:30;;;;;;;5.63;2.30;;;;;;;;;;5144635;27;20123;-67
2023/05/01 11:43:01;;;;;;;9.05;2.78;;;;;;;;;;5127666;27;20088;-66
2023/05/01 11:45:27;;;;;;;8.35;2.50;;;;;;;;;;5132957;27;20069;-67
2023/05/01 11:47:53;;;;;;;5.97;2.92;;;;;;;;;;5147227;27;20050;-64
2023/05/01 11:50:20;;;;;;;4.95;2.85;;;;;;;;;;5145947;27;20039;-66
2023/05/01 11:52:52;;;;;;;5.88;2.40;;;;;;;;;;5145588;27;20059;-70
2023/05/01 11:55:19;;;;;;;5.32;2.55;;;;;;;;;;5145310;27;20047;-68
2023/05/01 11:57:50;;;;;;;8.43;2.85;;;;;;;;;;5135394;27;20461;-69
2023/05/01 12:00:29;;;;;;;6.35;2.58;;;;;;;;;;5131659;27;20566;-66
2023/05/01 12:02:59;;;;;;;7.22;2.55;;;;;;;;;;5137164;27;20042;-66
2023/05/01 12:05:27;;;;;;;6.47;2.45;;;;;;;;;;5133090;27;20061;-67
2023/05/01 12:08:11;;;;;;;7.18;2.70;;;;;;;;;;5131883;27;20051;-68
2023/05/01 12:10:39;;;;;;;6.50;3.00;;;;;;;;;;5130788;27;20051;-65
2023/05/01 12:13:07;;;;;;;8.52;3.10;;;;;;;;;;5142864;27;20440;-68
2023/05/01 12:15:44;;;;;;;8.07;3.40;;;;;;;;;;5129356;27;20770;-65
2023/05/01 12:18:12;;;;;;;8.65;2.90;;;;;;;;;;5142605;27;20053;-67
2023/05/01 12:20:39;;;;;;;7.38;2.75;;;;;;;;;;5134053;27;20125;-66
2023/05/01 12:23:07;;;;;;;8.73;2.80;;;;;;;;;;5135178;27;20643;-69
2023/05/01 12:25:34;;;;;;;10.57;3.35;;;;;;;;;;5138608;27;20050;-67
2023/05/01 12:28:09;;;;;;;7.25;2.72;;;;;;;;;;5113340;27;20062;-66
2023/05/01 12:30:35;;;;;;;7.47;2.80;;;;;;;;;;5110452;27;20049;-67
2023/05/01 12:33:11;;;;;;;12.80;3.40;;;;;;;;;;5124391;27;20043;-65
2023/05/01 12:35:38;;;;;;;8.63;3.08;;;;;;;;;;5121830;27;20051;-67
2023/05/01 12:38:21;;;;;;;6.68;3.03;;;;;;;;;;5106691;27;20054;-69
2023/05/01 12:40:55;;;;;;;9.90;3.15;;;;;;;;;;5112116;27;20162;-66
2023/05/01 12:43:32;;;;;;;8.88;2.85;;;;;;;;;;5112931;27;20502;-66
2023/05/01 12:45:58;;;;;;;4.88;2.70;;;;;;;;;;5124142;27;20050;-67
2023/05/01 12:48:25;;;;;;;6.88;2.63;;;;;;;;;;5124947;27;20163;-67
2023/05/01 12:50:54;;;;;;;7.60;2.88;;;;;;;;;;5126303;27;20054;-67
2023/05/01 12:53:23;;;;;;;5.97;2.50;;;;;;;;;;5125899;27;20088;-69
2023/05/01 12:55:53;;;;;;;7.85;2.85;;;;;;;;;;5126562;27;20495;-66
2023/05/01 12:58:20;;;;;;;10.38;3.10;;;;;;;;;;5124031;27;20038;-66
2023/05/01 13:00:54;;;;;;;14.32;2.67;;;;;;;;;;5128262;27;20115;-68
2023/05/01 13:03:25;;;;;;;11.00;3.25;;;;;;;;;;5128376;27;20055;-65
2023/05/01 13:06:02;;;;;;;7.43;2.70;;;;;;;;;;5122642;27;20478;-67
2023/05/01 13:08:30;;;;;;;9.10;2.65;;;;;;;;;;5110472;27;20674;-67
2023/05/01 13:10:58;;;;;;;8.82;3.45;;;;;;;;;;5130454;27;20490;-67
2023/05/01 13:13:33;;;;;;;8.15;3.15;;;;;;;;;;5123113;27;20067;-66
2023/05/01 13:16:14;;;;;;;8.57;2.83;;;;;;;;;;5126252;27;20038;-70
2023/05/01 13:18:50;;;;;;;9.25;2.85;;;;;;;;;;5125213;27;20581;-65
2023/05/01 13:21:21;;;;;;;8.02;2.78;;;;;;;;;;5117914;27;20316;-66
2023/05/01 13:23:58;;;;;;;11.20;3.03;;;;;;;;;;5124747;27;20208;-65
2023/05/01 13:26:30;;;;;;;7.50;2.65;;;;;;;;;;5127111;27;20054;-67
2023/05/01 13:28:58;;;;;;;13.00;2.63;;;;;;;;;;5124805;27;20050;-68
2023/05/01 13:31:25;;;;;;;9.40;2.50;;;;;;;;;;5125670;27;20046;-68
2023/05/01 13:33:53;;;;;;;8.07;2.75;;;;;;;;;;5108018;27;20985;-67
2023/05/01 13:36:19;;;;;;;8.75;2.35;;;;;;;;;;5125284;27;20244;-67
2023/05/01 13:38:52;;;;;;;7.53;3.00;;;;;;;;;;5127791;27;20058;-65
2023/05/01 13:41:20;;;;;;;7.75;2.50;;;;;;;;;;5127427;27;20243;-67
2023/05/01 13:43:50;;;;;;;8.25;2.75;;;;;;;;;;5107187;27;20445;-67
2023/05/01 13:46:18;;;;;;;6.55;2.47;;;;;;;;;;5118654;27;20047;-66
2023/05/01 13:48:45;;;;;;;6.60;2.88;;;;;;;;;;5125751;27;20107;-65
2023/05/01 13:51:12;;;;;;;5.63;2.30;;;;;;;;;;5127492;27;20174;-67
2023/05/01 13:53:40;;;;;;;14.35;3.28;;;;;;;;;;5122310;27;20070;-68
2023/05/01 13:56:12;;;;;;;5.55;2.38;;;;;;;;;;5124350;27;20039;-66
2023/05/01 13:58:38;;;;;;;9.55;3.15;;;;;;;;;;5125017;27;22176;-67
2023/05/01 14:01:18;;;;;;;12.18;2.80;;;;;;;;;;5125803;27;20181;-68
2023/05/01 14:03:45;;;;;;;8.88;2.83;;;;;;;;;;5124661;27;20043;-67
2023/05/01 14:06:15;;;;;;;7.72;2.53;;;;;;;;;;5125725;27;20736;-66
2023/05/01 14:08:43;;;;;;;7.72;3.13;;;;;;;;;;5124745;27;20077;-65
2023/05/01 14:11:10;;;;;;;9.40;2.95;;;;;;;;;;5128019;27;20820;-66
2023/05/01 14:13:39;;;;;;;10.35;3.47;;;;;;;;;;5124591;27;20070;-65
2023/05/01 14:16:30;;;;;;;8.55;3.15;;;;;;;;;;5125352;27;20042;-67
2023/05/01 14:18:56;;;;;;;9.63;3.33;;;;;;;;;;5125742;27;20086;-67
2023/05/01 14:21:26;;;;;;;8.88;3.53;;;;;;;;;;5133997;27;20467;-66
2023/05/01 14:23:54;;;;;;;14.00;3.70;;;;;;;;;;5123598;27;20050;-65
2023/05/01 14:26:22;;;;;;;12.80;3.30;;;;;;;;;;5123435;27;20070;-68
2023/05/01 14:28:48;;;;;;;8.73;3.00;;;;;;;;;;5120603;27;20057;-65
2023/05/01 14:31:20;;;;;;;6.28;2.92;;;;;;;;;;5126749;27;20524;-67
2023/05/01 14:33:46;;;;;;;7.03;2.67;;;;;;;;;;5123618;27;20059;-67
2023/05/01 14:36:13;;;;;;;7.93;2.78;;;;;;;;;;5108633;27;20057;-67
2023/05/01 14:38:40;;;;;;;7.57;2.35;;;;;;;;;;5124680;27;20054;-75
2023/05/01 14:41:09;;;;;;;6.85;2.65;;;;;;;;;;5125025;27;20060;-66
2023/05/01 14:43:40;;;;;;;9.32;2.72;;;;;;;;;;5124426;27;20054;-67
2023/05/01 14:46:06;;;;;;;6.07;2.38;;;;;;;;;;5124132;27;20042;-65
2023/05/01 14:48:35;;;;;;;9.18;2.15;;;;;;;;;;5125509;27;20051;-67
2023/05/01 14:51:11;;;;;;;6.18;2.10;;;;;;;;;;5124504;27;20498;-66
2023/05/01 14:53:42;;;;;;;5.65;2.15;;;;;;;;;;5124474;27;20082;-66
2023/05/01 14:56:08;;;;;;;7.03;2.40;;;;;;;;;;5125563;27;20405;-68
2023/05/01 14:58:34;;;;;;;6.78;2.53;;;;;;;;;;5126961;27;20047;-66
2023/05/01 15:01:03;;;;;;;8.43;2.22;;;;;;;;;;5127250;27;20068;-67
2023/05/01 15:03:40;;;;;;;7.50;2.53;;;;;;;;;;5124381;27;20416;-68
2023/05/01 15:06:07;;;;;;;6.20;2.30;;;;;;;;;;5107333;27;20459;-67
2023/05/01 15:08:34;;;;;;;6.53;2.50;;;;;;;;;;5123588;27;20054;-69
2023/05/01 15:11:00;;;;;;;8.25;2.50;;;;;;;;;;5125884;27;20145;-68
2023/05/01 15:13:30;;;;;;;5.30;2.38;;;;;;;;;;5124315;27;20110;-67
2023/05/01 15:15:56;;;;;;;8.80;2.60;;;;;;;;;;5124492;27;20050;-66
2023/05/01 15:18:22;;;;;;;7.05;2.30;;;;;;;;;;5109576;27;20051;-66
2023/05/01 15:20:48;;;;;;;6.50;2.20;;;;;;;;;;5136016;27;20302;-67
2023/05/01 15:23:14;;;;;;;6.47;2.40;;;;;;;;;;5104851;27;20060;-65
2023/05/01 15:25:43;;;;;;;6.97;2.50;;;;;;;;;;5123896;27;20479;-65
2023/05/01 15:28:09;;;;;;;7.60;2.47;;;;;;;;;;5123909;27;20050;-67
2023/05/01 15:30:35;;;;;;;8.23;2.60;;;;;;;;;;5123560;27;20455;-68
2023/05/01 15:33:01;;;;;;;9.13;2.60;;;;;;;;;;5122070;27;20052;-66
2023/05/01 15:35:27;;;;;;;7.90;2.40;;;;;;;;;;5108239;27;20034;-65